createdAt,value
2023-05-22T00:03:12.549Z,100013.06
2023-05-22T00:08:13.911Z,100015.72
2023-05-22T00:13:15.228Z,100006.69
2023-05-22T00:18:16.490Z,100003.06
2023-05-22T00:23:18.033Z,100005.13
2023-05-22T00:28:19.263Z,99999.63
2023-05-22T00:33:20.624Z,99998.63
2023-05-22T00:38:22.018Z,99993.88
2023-05-22T00:43:23.410Z,99992.53
2023-05-22T00:48:24.664Z,99983.81
2023-05-22T00:53:26.098Z,99990.59
2023-05-22T00:58:27.609Z,99985.94
2023-05-22T01:03:29.957Z,99990.47
2023-05-22T01:08:31.420Z,99984.28
2023-05-22T01:13:32.651Z,99991.69
2023-05-22T01:18:33.966Z,99987.03
2023-05-22T01:23:35.272Z,99987.91
2023-05-22T01:28:36.509Z,99998.50
2023-05-22T01:33:37.745Z,100000.72
2023-05-22T01:38:39.019Z,100001.16
2023-05-22T01:43:40.282Z,100008.97
2023-05-22T01:48:41.559Z,100002.03
2023-05-22T01:53:42.995Z,99992.09
2023-05-22T01:58:44.230Z,99992.75
2023-05-22T02:03:45.517Z,99990.44
2023-05-22T02:08:47.338Z,99988.78
2023-05-22T02:13:48.601Z,99992.75
2023-05-22T02:18:51.232Z,99987.78
2023-05-22T02:23:52.627Z,99986.56
2023-05-22T02:28:53.858Z,99983.91
2023-05-22T02:33:55.145Z,99979.25
2023-05-22T02:38:56.462Z,99976.81
2023-05-22T02:43:57.663Z,99973.94
2023-05-22T02:48:58.888Z,99972.59
2023-05-22T02:54:00.141Z,99972.59
2023-05-22T02:59:01.375Z,99951.75
2023-05-22T03:04:02.621Z,99954.28
2023-05-22T03:09:04.314Z,99949.38
2023-05-22T03:14:05.638Z,99947.28
2023-05-22T03:19:06.936Z,99954.75
2023-05-22T03:24:08.163Z,99949.81
2023-05-22T03:29:09.429Z,99949.03
2023-05-22T03:34:10.828Z,99951.56
2023-05-22T03:39:12.233Z,99955.19
2023-05-22T03:44:13.484Z,99968.28
2023-05-22T03:49:14.767Z,99971.34
2023-05-22T03:54:15.955Z,99963.16
2023-05-22T03:59:17.245Z,99969.53
2023-05-22T04:04:18.450Z,99969.97
2023-05-22T04:09:19.794Z,99964.16
2023-05-22T04:14:21.045Z,99981.94
2023-05-22T04:19:22.495Z,99999.63
2023-05-22T04:24:23.835Z,99991.38
2023-05-22T04:29:25.071Z,100003.75
2023-05-22T04:34:26.349Z,99999.34
2023-05-22T04:39:27.567Z,100004.91
2023-05-22T04:44:30.359Z,100005.03
2023-05-22T04:49:31.942Z,100000.75
2023-05-22T04:54:33.387Z,100009.03
2023-05-22T04:59:37.778Z,100001.13
2023-05-22T05:04:39.021Z,100003.78
2023-05-22T05:09:40.301Z,100005.03
2023-05-22T05:14:41.570Z,100012.22
2023-05-22T05:19:42.825Z,100010.53
2023-05-22T05:24:44.097Z,100010.69
2023-05-22T05:29:45.298Z,100010.09
2023-05-22T05:34:46.491Z,100019.06
2023-05-22T05:39:47.741Z,100026.03
2023-05-22T05:44:48.917Z,100029.44
2023-05-22T05:49:50.097Z,100038.69
2023-05-22T05:54:52.005Z,100038.94
2023-05-22T05:59:53.275Z,100036.47
2023-05-22T06:04:55.938Z,100043.50
2023-05-22T06:09:57.232Z,100054.22
2023-05-22T06:14:58.459Z,100041.69
2023-05-22T06:19:59.652Z,100050.94
2023-05-22T06:25:00.928Z,100047.38
2023-05-22T06:30:04.545Z,100044.88
2023-05-22T06:35:06.105Z,100043.06
2023-05-22T06:40:07.636Z,100054.03
2023-05-22T06:45:08.880Z,100061.78
2023-05-22T06:50:11.517Z,100073.47
2023-05-22T06:55:13.086Z,100069.97
2023-05-22T07:00:15.371Z,100074.13
2023-05-22T07:05:17.017Z,100082.63
2023-05-22T07:10:18.474Z,100082.03
2023-05-22T07:15:20.061Z,100085.06
2023-05-22T07:20:21.428Z,100084.06
2023-05-22T07:25:22.903Z,100087.47
2023-05-22T07:30:24.080Z,100081.13
2023-05-22T07:35:25.475Z,100090.38
2023-05-22T07:40:26.775Z,100089.00
2023-05-22T07:45:28.273Z,100102.91
2023-05-22T07:50:30.692Z,100105.81
2023-05-22T07:55:32.023Z,100107.72
2023-05-22T08:00:33.312Z,100113.31
2023-05-22T08:05:34.606Z,100111.84
2023-05-22T08:10:52.306Z,100113.81
2023-05-22T08:16:00.357Z,100114.03
2023-05-22T08:21:02.408Z,100114.53
2023-05-22T08:26:03.667Z,100120.81
2023-05-22T08:31:04.984Z,100116.78
2023-05-22T08:36:06.239Z,100120.13
2023-05-22T08:41:07.703Z,100121.84
2023-05-22T08:46:09.228Z,100127.25
2023-05-22T08:51:10.448Z,100123.56
2023-05-22T08:56:11.735Z,100123.53
2023-05-22T09:01:12.968Z,100127.66
2023-05-22T09:06:14.253Z,100131.00
2023-05-22T09:11:15.608Z,100135.31
2023-05-22T09:16:16.890Z,100137.47
2023-05-22T09:21:29.694Z,100140.28
2023-05-22T09:26:33.535Z,100139.88
2023-05-22T09:31:34.863Z,100136.56
2023-05-22T09:36:36.181Z,100147.47
2023-05-22T09:41:37.510Z,100140.28
2023-05-22T09:46:38.834Z,100140.84
2023-05-22T09:51:40.095Z,100144.81
2023-05-22T09:56:41.516Z,100146.53
2023-05-22T10:01:45.711Z,100147.97
2023-05-22T10:06:47.010Z,100152.81
2023-05-22T10:11:48.212Z,100150.56
2023-05-22T10:16:49.426Z,100156.91
2023-05-22T10:21:50.726Z,100157.06
2023-05-22T10:26:52.017Z,100153.72
2023-05-22T10:31:53.205Z,100158.94
2023-05-22T10:36:56.114Z,100152.25
2023-05-22T10:42:01.786Z,100142.09
2023-05-22T10:47:03.021Z,100140.06
2023-05-22T10:52:04.219Z,100137.00
2023-05-22T10:57:05.606Z,100133.09
2023-05-22T11:02:08.428Z,100129.09
2023-05-22T11:07:13.209Z,100133.97
2023-05-22T11:12:17.447Z,100129.25
2023-05-22T11:17:19.701Z,100125.66
2023-05-22T11:22:21.116Z,100120.25
2023-05-22T11:27:22.408Z,100126.72
2023-05-22T11:32:23.713Z,100124.75
2023-05-22T11:37:25.112Z,100127.88
2023-05-22T11:42:26.382Z,100116.06
2023-05-22T11:47:27.690Z,100126.97
2023-05-22T11:52:28.876Z,100109.44
2023-05-22T11:57:31.442Z,100107.16
2023-05-22T12:02:32.821Z,100102.25
2023-05-22T12:07:34.200Z,100099.78
2023-05-22T12:12:35.662Z,100093.53
2023-05-22T12:17:38.385Z,100087.47
2023-05-22T12:22:40.056Z,100080.84
2023-05-22T12:27:41.388Z,100090.09
2023-05-22T12:32:42.806Z,100086.28
2023-05-22T12:37:44.158Z,100087.47
2023-05-22T12:42:45.595Z,100082.00
2023-05-22T12:47:46.968Z,100084.25
2023-05-22T12:52:48.244Z,100075.56
2023-05-22T12:57:49.536Z,100077.19
2023-05-22T13:02:51.033Z,100074.13
2023-05-22T13:07:52.859Z,100084.09
2023-05-22T13:12:54.224Z,100077.44
2023-05-22T13:17:56.002Z,100070.63
2023-05-22T13:22:57.258Z,100069.81
2023-05-22T13:27:58.493Z,100059.47
2023-05-22T13:32:59.791Z,100065.69
2023-05-22T13:38:01.106Z,100063.00
2023-05-22T13:43:02.364Z,100064.88
2023-05-22T13:48:03.638Z,100062.63
2023-05-22T13:53:04.958Z,100058.03
2023-05-22T13:58:06.199Z,100060.72
2023-05-22T14:03:07.690Z,100071.06
2023-05-22T14:08:08.989Z,100074.88
2023-05-22T14:13:10.438Z,100070.66
2023-05-22T14:18:11.856Z,100069.16
2023-05-22T14:23:13.670Z,100076.44
2023-05-22T14:28:14.952Z,100073.34
2023-05-22T14:33:16.268Z,100065.31
2023-05-22T14:38:17.527Z,100062.63
2023-05-22T14:43:18.798Z,100058.78
2023-05-22T14:48:20.533Z,100045.75
2023-05-22T14:53:21.840Z,100046.91
2023-05-22T14:58:23.086Z,100039.63
2023-05-22T15:03:24.269Z,100040.75
2023-05-22T15:08:25.570Z,100034.94
2023-05-22T15:13:26.776Z,100026.53
2023-05-22T15:18:28.079Z,100026.47
2023-05-22T15:23:29.641Z,100023.47
2023-05-22T15:28:30.979Z,100024.97
2023-05-22T15:33:33.968Z,100018.50
2023-05-22T15:38:35.265Z,100013.50
2023-05-22T15:43:36.450Z,100008.13
2023-05-22T15:48:37.835Z,100001.25
2023-05-22T15:53:39.112Z,100000.47
2023-05-22T15:58:40.402Z,100015.06
2023-05-22T16:03:41.782Z,100013.88
2023-05-22T16:08:43.137Z,100012.75
2023-05-22T16:13:44.392Z,100018.09
2023-05-22T16:18:45.737Z,100025.72
2023-05-22T16:23:46.968Z,100019.53
2023-05-22T16:28:48.247Z,100011.81
2023-05-22T16:33:49.510Z,100022.53
2023-05-22T16:38:50.700Z,100022.50
2023-05-22T16:43:51.911Z,100022.56
2023-05-22T16:48:53.099Z,100023.28
2023-05-22T16:53:54.320Z,100023.56
2023-05-22T16:58:55.568Z,100023.94
2023-05-22T17:03:57.328Z,100026.22
2023-05-22T17:08:58.731Z,100028.94
2023-05-22T17:13:59.941Z,100029.31
2023-05-22T17:19:01.907Z,100037.28
2023-05-22T17:24:03.271Z,100033.75
2023-05-22T17:29:04.754Z,100038.28
2023-05-22T17:34:05.963Z,100034.47
2023-05-22T17:39:07.345Z,100047.03
2023-05-22T17:44:08.586Z,100050.41
2023-05-22T17:49:09.824Z,100061.88
2023-05-22T17:54:11.491Z,100054.19
2023-05-22T17:59:12.705Z,100056.44
2023-05-22T18:04:13.983Z,100060.19
2023-05-22T18:09:15.189Z,100067.78
2023-05-22T18:14:16.449Z,100066.16
2023-05-22T18:19:17.689Z,100068.31
2023-05-22T18:24:18.994Z,100078.84
2023-05-22T18:29:20.447Z,100085.50
2023-05-22T18:34:21.673Z,100098.00
2023-05-22T18:39:22.890Z,100105.22
2023-05-22T18:44:24.192Z,100118.75
2023-05-22T18:49:25.424Z,100119.28
2023-05-22T18:54:26.796Z,100128.94
2023-05-22T18:59:28.124Z,100138.91
2023-05-22T19:04:29.416Z,100146.59
2023-05-22T19:09:30.681Z,100149.34
2023-05-22T19:14:31.868Z,100164.69
2023-05-22T19:19:33.118Z,100161.38
2023-05-22T19:24:34.386Z,100168.41
2023-05-22T19:29:35.953Z,100169.38
2023-05-22T19:34:39.785Z,100169.19
2023-05-22T19:39:41.171Z,100183.00
2023-05-22T19:44:42.589Z,100190.84
2023-05-22T19:49:43.991Z,100197.09
2023-05-22T19:54:45.398Z,100200.56
2023-05-22T19:59:46.945Z,100207.56
2023-05-22T20:04:48.454Z,100221.97
2023-05-22T20:09:49.833Z,100226.16
2023-05-22T20:14:51.146Z,100220.56
2023-05-22T20:19:52.449Z,100226.81
2023-05-22T20:24:53.669Z,100234.06
2023-05-22T20:29:54.965Z,100234.00
2023-05-22T20:34:56.188Z,100240.59
2023-05-22T20:40:03.421Z,100242.47
2023-05-22T20:45:04.672Z,100245.59
2023-05-22T20:50:05.834Z,100247.09
2023-05-22T20:55:07.345Z,100246.44
2023-05-22T21:00:11.471Z,100246.50
2023-05-22T21:05:13.292Z,100244.50
2023-05-22T21:10:14.498Z,100238.88
2023-05-22T21:15:15.740Z,100244.25
2023-05-22T21:20:17.001Z,100238.97
2023-05-22T21:25:18.252Z,100236.09
2023-05-22T21:30:19.436Z,100242.19
2023-05-22T21:35:20.633Z,100236.97
2023-05-22T21:40:21.989Z,100251.13
2023-05-22T21:45:23.226Z,100249.59
2023-05-22T21:50:24.414Z,100256.88
2023-05-22T21:55:25.641Z,100256.00
2023-05-22T22:00:28.567Z,100271.00
2023-05-22T22:05:30.004Z,100266.34
2023-05-22T22:10:31.257Z,100270.22
2023-05-22T22:15:33.735Z,100272.63
2023-05-22T22:20:44.131Z,100275.69
2023-05-22T22:25:46.704Z,100276.69
2023-05-22T22:30:47.996Z,100275.47
2023-05-22T22:35:49.340Z,100273.34
2023-05-22T22:40:50.671Z,100283.66
2023-05-22T22:45:52.126Z,100259.91
2023-05-22T22:50:53.400Z,100298.09
2023-05-22T22:55:54.564Z,100310.78
2023-05-22T23:00:55.919Z,100316.72
2023-05-22T23:05:57.771Z,100323.44
2023-05-22T23:10:59.052Z,100326.16
2023-05-22T23:16:00.336Z,100321.38
2023-05-22T23:21:01.579Z,100329.81
2023-05-22T23:26:02.773Z,100333.28
2023-05-22T23:31:04.029Z,100330.38
2023-05-22T23:36:05.349Z,100331.22
2023-05-22T23:41:06.577Z,100326.22
2023-05-22T23:46:07.883Z,100334.69
2023-05-22T23:51:09.135Z,100340.53
2023-05-22T23:56:10.387Z,100344.06
